Wetterdaten für den Flughafen Lübeck Blankensee


ADDS - METARS form results Aviation Digital Data Service (ADDS) Output produced by METARs form (1024 UTC 26 January 2022)
found at http://www.aviationweather.gov/metar/data/
 
EDHL 260950Z 25009KT 210V320 6000 BKN008 03/02 Q1027
TAF EDHL 260800Z 2609/2618 24010KT 8000 BKN007 TEMPO 2609/2612 3500 -DZ TEMPO 2612/2618 BKN012 PROB30 TEMPO 2612/2616 SCT008 BKN015

Nord: Hamburg, Lübeck
Ost: Schwerin, Rostock
Süd: Hannover
West: Bremen, Nordhloz

 

Copyright © 2016 Flugschule Hohensee